Time;durP1;ratioP1;P1;durP2;ratioP2;P2;SDS_P1;SDS_P2;PMS_P1;PMS_P2;Temp;Humidity;BMP_temperature;BMP_pressure;BME280_temperature;BME280_humidity;BME280_pressure;Samples;Min_cycle;Max_cycle;Signal;HPM_P1;HPM_P2
2022/08/02 00:02:45;0.00;0.00;0.62;0.00;0.00;0.62;2.63;1.80;;;27.40;32.00;;;;;;2222322;62;20371;-65
2022/08/02 00:05:33;0.00;0.00;0.62;0.00;0.00;0.62;5.23;2.30;;;27.40;32.10;;;;;;2221885;62;20378;-66
2022/08/02 00:08:18;0.00;0.00;0.62;0.00;0.00;0.62;2.57;2.00;;;27.40;32.00;;;;;;2221462;62;20379;-65
2022/08/02 00:11:03;0.00;0.00;0.62;0.00;0.00;0.62;3.97;2.40;;;27.40;32.00;;;;;;2222139;62;20443;-65
2022/08/02 00:13:49;0.00;0.00;0.62;0.00;0.00;0.62;2.67;1.80;;;27.40;32.00;;;;;;2222161;62;20424;-66
2022/08/02 00:16:34;0.00;0.00;0.62;0.00;0.00;0.62;3.07;1.80;;;27.40;32.00;;;;;;2222106;62;20371;-64
2022/08/02 00:19:23;0.00;0.00;0.62;0.00;0.00;0.62;2.23;1.67;;;27.40;32.10;;;;;;2222065;62;20466;-65
2022/08/02 00:22:08;0.00;0.00;0.62;0.00;0.00;0.62;3.27;1.70;;;27.40;32.10;;;;;;2221592;62;20765;-65
2022/08/02 00:24:56;0.00;0.00;0.62;0.00;0.00;0.62;2.50;1.60;;;27.40;32.10;;;;;;2222048;62;20723;-65
2022/08/02 00:27:41;0.00;0.00;0.62;0.00;0.00;0.62;3.10;2.00;;;27.40;32.10;;;;;;2222124;62;20379;-63
2022/08/02 00:30:29;0.00;0.00;0.62;0.00;0.00;0.62;2.70;2.03;;;27.40;32.10;;;;;;2221550;62;20418;-64
2022/08/02 00:33:14;0.00;0.00;0.62;0.00;0.00;0.62;2.10;1.63;;;27.40;32.10;;;;;;2221502;62;20759;-65
2022/08/02 00:36:04;0.00;0.00;0.62;0.00;0.00;0.62;2.10;1.50;;;27.40;32.10;;;;;;2222225;62;20738;-65
2022/08/02 00:38:49;0.00;0.00;0.62;0.00;0.00;0.62;3.53;1.80;;;27.40;32.10;;;;;;2221388;62;20460;-64
2022/08/02 00:41:47;0.00;0.00;0.62;0.00;0.00;0.62;2.30;1.90;;;27.40;32.10;;;;;;2221748;62;20632;-65
2022/08/02 00:44:33;0.00;0.00;0.62;0.00;0.00;0.62;2.63;2.07;;;27.40;32.10;;;;;;2221227;62;20703;-66
2022/08/02 00:47:28;0.00;0.00;0.62;0.00;0.00;0.62;2.90;2.17;;;27.40;32.10;;;;;;2221559;62;20371;-64
2022/08/02 00:50:13;0.00;0.00;0.62;0.00;0.00;0.62;3.20;2.17;;;27.40;32.10;;;;;;2222225;62;20387;-65
2022/08/02 00:53:00;0.00;0.00;0.62;0.00;0.00;0.62;2.23;1.60;;;27.40;32.10;;;;;;2221360;62;20398;-65
2022/08/02 00:55:49;0.00;0.00;0.62;0.00;0.00;0.62;3.33;2.13;;;27.40;32.10;;;;;;2221734;62;20412;-67
2022/08/02 00:58:34;0.00;0.00;0.62;0.00;0.00;0.62;2.10;1.80;;;27.40;32.10;;;;;;2221427;62;20451;-67
2022/08/02 01:01:19;0.00;0.00;0.62;0.00;0.00;0.62;3.40;2.00;;;27.40;32.10;;;;;;2221970;62;20375;-65
2022/08/02 01:04:07;0.00;0.00;0.62;0.00;0.00;0.62;2.30;1.57;;;27.40;32.10;;;;;;2221912;62;20727;-66
2022/08/02 01:06:52;0.00;0.00;0.62;0.00;0.00;0.62;1.97;1.60;;;27.40;32.10;;;;;;2221350;62;20371;-66
2022/08/02 01:09:38;0.00;0.00;0.62;0.00;0.00;0.62;2.33;1.90;;;27.40;32.10;;;;;;2221769;62;20619;-65
2022/08/02 01:12:26;0.00;0.00;0.62;0.00;0.00;0.62;3.93;2.00;;;27.40;32.10;;;;;;2222193;62;20387;-65
2022/08/02 01:15:13;0.00;0.00;0.62;0.00;0.00;0.62;2.40;1.90;;;27.40;32.10;;;;;;2221407;62;20371;-64
2022/08/02 01:18:04;0.00;0.00;0.62;0.00;0.00;0.62;2.87;2.07;;;27.40;32.10;;;;;;2222059;62;20411;-64
2022/08/02 01:21:32;0.00;0.00;0.62;0.00;0.00;0.62;2.10;1.43;;;27.40;32.10;;;;;;2221392;62;20448;-64
2022/08/02 01:24:34;0.00;0.00;0.62;0.00;0.00;0.62;3.47;2.00;;;27.40;32.10;;;;;;2220294;62;20496;-65
2022/08/02 01:27:41;0.00;0.00;0.62;0.00;0.00;0.62;3.70;1.93;;;27.40;32.10;;;;;;2219611;62;20418;-63
2022/08/02 01:30:31;0.00;0.00;0.62;0.00;0.00;0.62;3.60;1.97;;;27.40;32.10;;;;;;2219288;62;20956;-64
2022/08/02 01:33:19;0.00;0.00;0.62;0.00;0.00;0.62;2.63;1.77;;;27.40;32.00;;;;;;2219852;62;20398;-63
2022/08/02 01:36:10;0.00;0.00;0.62;0.00;0.00;0.62;2.40;1.57;;;27.40;32.00;;;;;;2218911;62;20379;-65
2022/08/02 01:38:56;0.00;0.00;0.62;0.00;0.00;0.62;3.37;2.30;;;27.40;32.00;;;;;;2219332;62;20440;-65
2022/08/02 01:41:42;0.00;0.00;0.62;0.00;0.00;0.62;3.80;1.80;;;27.40;32.00;;;;;;2219233;62;20366;-64
2022/08/02 01:44:33;0.00;0.00;0.62;0.00;0.00;0.62;3.70;2.30;;;27.40;32.00;;;;;;2218996;62;20389;-64
2022/08/02 01:47:27;0.00;0.00;0.62;0.00;0.00;0.62;2.77;1.90;;;27.40;32.00;;;;;;2219696;62;20600;-64
2022/08/02 01:50:17;0.00;0.00;0.62;0.00;0.00;0.62;2.00;1.53;;;27.40;32.10;;;;;;2219228;62;20808;-64
2022/08/02 01:53:06;0.00;0.00;0.62;0.00;0.00;0.62;2.03;1.83;;;27.40;32.00;;;;;;2219136;62;20391;-65
2022/08/02 01:55:53;0.00;0.00;0.62;0.00;0.00;0.62;3.57;1.63;;;27.40;32.10;;;;;;2219802;62;20443;-65
2022/08/02 01:58:39;0.00;0.00;0.62;0.00;0.00;0.62;2.47;1.87;;;27.40;32.00;;;;;;2218633;62;20510;-65
2022/08/02 02:01:24;0.00;0.00;0.62;0.00;0.00;0.62;4.63;2.00;;;27.40;32.00;;;;;;2219547;62;20577;-66
2022/08/02 02:04:12;0.00;0.00;0.62;0.00;0.00;0.62;2.00;1.60;;;27.40;32.00;;;;;;2219672;62;20355;-64
2022/08/02 02:06:57;0.00;0.00;0.62;0.00;0.00;0.62;2.87;1.80;;;27.40;32.00;;;;;;2218899;62;20462;-66
2022/08/02 02:09:43;0.00;0.00;0.62;0.00;0.00;0.62;3.63;2.10;;;27.40;32.00;;;;;;2219576;62;20406;-65
2022/08/02 02:12:30;0.00;0.00;0.62;0.00;0.00;0.62;2.03;1.57;;;27.40;32.10;;;;;;2219314;62;20488;-66
2022/08/02 02:15:15;0.00;0.00;0.62;0.00;0.00;0.62;2.50;1.77;;;27.40;32.10;;;;;;2219405;62;20695;-64
2022/08/02 02:18:00;0.00;0.00;0.62;0.00;0.00;0.62;2.27;1.50;;;27.40;32.10;;;;;;2219562;62;20366;-65
2022/08/02 02:20:47;0.00;0.00;0.62;0.00;0.00;0.62;3.03;2.30;;;27.40;32.10;;;;;;2218939;62;20622;-65
2022/08/02 02:23:32;0.00;0.00;0.62;0.00;0.00;0.62;1.80;1.57;;;27.40;32.10;;;;;;2219474;62;20719;-64
2022/08/02 02:26:18;0.00;0.00;0.62;0.00;0.00;0.62;1.80;1.50;;;27.40;32.10;;;;;;2219692;62;20403;-64
2022/08/02 02:29:07;0.00;0.00;0.62;0.00;0.00;0.62;3.20;2.00;;;27.40;32.10;;;;;;2218868;62;20399;-65
2022/08/02 02:31:55;0.00;0.00;0.62;0.00;0.00;0.62;3.13;2.00;;;27.40;32.10;;;;;;2219425;62;20754;-65
2022/08/02 02:34:44;0.00;0.00;0.62;0.00;0.00;0.62;2.93;1.93;;;27.40;32.10;;;;;;2218956;62;20413;-65
2022/08/02 02:37:32;0.00;0.00;0.62;0.00;0.00;0.62;5.87;2.20;;;27.40;32.10;;;;;;2219456;62;20375;-64
2022/08/02 02:40:19;0.00;0.00;0.62;0.00;0.00;0.62;3.17;2.17;;;27.40;32.80;;;;;;2219532;62;20399;-65
2022/08/02 02:43:05;0.00;0.00;0.62;0.00;0.00;0.62;1.97;1.50;;;27.40;32.10;;;;;;2219097;62;20397;-64
2022/08/02 02:45:51;0.00;0.00;0.62;0.00;0.00;0.62;2.47;1.97;;;27.40;32.10;;;;;;2218880;62;20372;-65
2022/08/02 02:48:36;0.00;0.00;0.62;0.00;0.00;0.62;3.10;2.13;;;27.40;32.10;;;;;;2219405;62;20737;-65
2022/08/02 02:51:22;0.00;0.00;0.62;0.00;0.00;0.62;3.50;1.73;;;27.40;32.10;;;;;;2219108;62;20447;-65
2022/08/02 02:54:10;0.00;0.00;0.62;0.00;0.00;0.62;2.63;1.77;;;27.40;32.10;;;;;;2219550;62;20398;-66
2022/08/02 02:56:56;0.00;0.00;0.62;0.00;0.00;0.62;3.40;1.83;;;27.40;32.10;;;;;;2219157;62;20371;-65
2022/08/02 02:59:42;0.00;0.00;0.62;0.00;0.00;0.62;2.27;1.87;;;27.40;32.10;;;;;;2222116;62;20673;-66
2022/08/02 03:02:28;0.00;0.00;0.62;0.00;0.00;0.62;2.73;1.60;;;27.40;32.10;;;;;;2220172;62;20757;-66
2022/08/02 03:05:13;0.00;0.00;0.62;0.00;0.00;0.62;3.30;1.57;;;27.40;32.10;;;;;;2219494;62;20469;-66
2022/08/02 03:07:58;0.00;0.00;0.62;0.00;0.00;0.62;3.33;1.70;;;27.40;32.10;;;;;;2219679;62;20367;-65
2022/08/02 03:10:45;0.00;0.00;0.62;0.00;0.00;0.62;2.60;1.83;;;27.40;32.10;;;;;;2220173;62;20467;-66
2022/08/02 03:13:31;0.00;0.00;0.62;0.00;0.00;0.62;2.30;1.67;;;27.40;32.10;;;;;;2219396;62;20390;-65
2022/08/02 03:16:16;0.00;0.00;0.62;0.00;0.00;0.62;3.23;1.70;;;27.40;32.10;;;;;;2220218;62;20430;-65
2022/08/02 03:19:02;0.00;0.00;0.62;0.00;0.00;0.62;2.57;1.70;;;27.40;32.10;;;;;;2219879;62;20386;-64
2022/08/02 03:21:49;0.00;0.00;0.62;0.00;0.00;0.62;2.00;1.67;;;27.40;32.10;;;;;;2219723;62;20712;-64
2022/08/02 03:24:34;0.00;0.00;0.62;0.00;0.00;0.62;2.83;1.60;;;27.40;32.00;;;;;;2219707;62;20386;-65
2022/08/02 03:27:20;0.00;0.00;0.62;0.00;0.00;0.62;2.50;1.80;;;27.40;32.00;;;;;;2219478;62;20480;-65
2022/08/02 03:30:08;0.00;0.00;0.62;0.00;0.00;0.62;2.63;1.93;;;27.30;32.00;;;;;;2219470;62;20394;-65
2022/08/02 03:32:53;0.00;0.00;0.62;0.00;0.00;0.62;2.23;1.70;;;27.30;32.00;;;;;;2220274;62;20391;-65
2022/08/02 03:35:39;0.00;0.00;0.62;0.00;0.00;0.62;3.10;2.17;;;27.40;32.10;;;;;;2218938;62;20420;-66
2022/08/02 03:38:25;0.00;0.00;0.62;0.00;0.00;0.62;3.83;2.10;;;27.40;32.10;;;;;;2219838;62;20630;-64
2022/08/02 03:41:16;0.00;0.00;0.62;0.00;0.00;0.62;2.60;1.50;;;27.30;32.00;;;;;;2222008;62;20372;-65
2022/08/02 03:44:05;0.00;0.00;0.62;0.00;0.00;0.62;3.27;1.90;;;27.30;32.00;;;;;;2221616;62;20416;-65
2022/08/02 03:46:51;0.00;0.00;0.62;0.00;0.00;0.62;2.50;1.87;;;27.30;32.00;;;;;;2222362;62;20735;-64
2022/08/02 03:49:37;0.00;0.00;0.62;0.00;0.00;0.62;3.90;1.97;;;27.30;31.90;;;;;;2221300;62;20435;-65
2022/08/02 03:52:25;0.00;0.00;0.62;0.00;0.00;0.62;2.10;1.87;;;27.30;32.00;;;;;;2222287;62;20428;-65
2022/08/02 03:55:14;0.00;0.00;0.62;0.00;0.00;0.62;2.57;2.07;;;27.30;31.90;;;;;;2222540;62;20366;-64
2022/08/02 03:57:59;0.00;0.00;0.62;0.00;0.00;0.62;2.73;1.73;;;27.30;31.90;;;;;;2221568;62;20769;-65
2022/08/02 04:01:07;0.00;0.00;0.62;0.00;0.00;0.62;2.43;1.63;;;27.30;31.90;;;;;;2222664;62;20395;-70
2022/08/02 04:03:52;0.00;0.00;0.62;0.00;0.00;0.62;2.03;1.57;;;27.30;31.90;;;;;;2270285;59;20427;-66
2022/08/02 04:06:37;0.00;0.00;0.62;0.00;0.00;0.62;2.70;1.70;;;27.30;32.00;;;;;;2223619;62;20366;-64
2022/08/02 04:09:22;0.00;0.00;0.62;0.00;0.00;0.62;2.43;1.90;;;27.30;32.00;;;;;;2223595;62;20394;-64
2022/08/02 04:12:07;0.00;0.00;0.62;0.00;0.00;0.62;2.70;2.27;;;27.30;32.00;;;;;;2223059;62;20582;-65
2022/08/02 04:14:52;0.00;0.00;0.62;0.00;0.00;0.62;4.53;1.90;;;27.30;32.00;;;;;;2223898;62;20703;-65
2022/08/02 04:17:44;0.00;0.00;0.62;0.00;0.00;0.62;3.07;1.87;;;27.30;31.90;;;;;;2223740;62;20392;-65
2022/08/02 04:20:32;0.00;0.00;0.62;0.00;0.00;0.62;2.47;2.17;;;27.30;32.00;;;;;;2222884;62;20428;-65
2022/08/02 04:23:17;0.00;0.00;0.62;0.00;0.00;0.62;2.43;1.50;;;27.20;31.90;;;;;;2223986;62;20396;-65
2022/08/02 04:26:03;0.00;0.00;0.62;0.00;0.00;0.62;3.30;2.23;;;27.30;32.00;;;;;;2223010;62;20369;-65
2022/08/02 04:28:49;0.00;0.00;0.62;0.00;0.00;0.62;3.60;1.80;;;27.30;32.00;;;;;;2223452;62;20427;-65
2022/08/02 04:31:35;0.00;0.00;0.62;0.00;0.00;0.62;1.90;1.70;;;27.30;32.00;;;;;;2223912;62;20442;-65
2022/08/02 04:34:21;0.00;0.00;0.62;0.00;0.00;0.62;2.10;1.80;;;27.30;32.00;;;;;;2223082;62;20367;-65
2022/08/02 04:37:06;0.00;0.00;0.62;0.00;0.00;0.62;2.90;2.23;;;27.30;32.00;;;;;;2223713;62;20495;-64
2022/08/02 04:39:51;0.00;0.00;0.62;0.00;0.00;0.62;3.23;2.10;;;27.20;31.90;;;;;;2223651;62;20423;-64
2022/08/02 04:42:36;0.00;0.00;0.62;0.00;0.00;0.62;2.27;1.93;;;27.20;31.90;;;;;;2222983;62;20737;-65
2022/08/02 04:45:22;0.00;0.00;0.62;0.00;0.00;0.62;4.53;2.13;;;27.30;32.00;;;;;;2223343;62;20498;-65
2022/08/02 04:48:07;0.00;0.00;0.62;0.00;0.00;0.62;1.90;1.40;;;27.20;31.90;;;;;;2222883;62;20391;-65
2022/08/02 04:50:53;0.00;0.00;0.62;0.00;0.00;0.62;3.20;2.40;;;27.20;32.00;;;;;;2223580;62;20386;-64
2022/08/02 04:53:38;0.00;0.00;0.62;0.00;0.00;0.62;2.67;2.10;;;27.20;31.90;;;;;;2223275;62;20393;-64
2022/08/02 04:56:23;0.00;0.00;0.62;0.00;0.00;0.62;4.67;2.20;;;27.20;31.90;;;;;;2223098;62;20358;-64
2022/08/02 04:59:08;0.00;0.00;0.62;0.00;0.00;0.62;3.37;2.10;;;27.20;31.90;;;;;;2223283;62;20498;-65
2022/08/02 05:01:53;0.00;0.00;0.62;0.00;0.00;0.62;3.17;1.90;;;27.20;31.50;;;;;;2223646;62;20775;-65
2022/08/02 05:04:38;0.00;0.00;0.62;0.00;0.00;0.62;3.20;2.10;;;27.20;31.50;;;;;;2223585;62;20580;-65
2022/08/02 05:07:23;0.00;0.00;0.62;0.00;0.00;0.62;3.40;2.60;;;27.20;31.50;;;;;;2223828;62;20406;-64
2022/08/02 05:10:09;0.00;0.00;0.62;0.00;0.00;0.62;4.67;2.10;;;27.20;31.60;;;;;;2223403;62;20398;-65
2022/08/02 05:12:54;0.00;0.00;0.62;0.00;0.00;0.62;2.90;1.93;;;27.10;31.40;;;;;;2223736;62;20425;-65
2022/08/02 05:15:39;0.00;0.00;0.62;0.00;0.00;0.62;3.77;1.83;;;27.10;31.40;;;;;;2223855;62;20619;-65
2022/08/02 05:18:23;0.00;0.00;0.62;0.00;0.00;0.62;2.70;1.87;;;27.10;31.40;;;;;;2223229;62;20479;-65
2022/08/02 05:21:08;0.00;0.00;0.62;0.00;0.00;0.62;3.07;1.90;;;27.10;31.50;;;;;;2223468;62;20753;-65
2022/08/02 05:23:55;0.00;0.00;0.62;0.00;0.00;0.62;5.27;2.63;;;27.10;31.60;;;;;;2223839;62;20362;-64
2022/08/02 05:26:41;0.00;0.00;0.62;0.00;0.00;0.62;7.03;2.67;;;27.10;31.40;;;;;;2223424;62;20358;-65
2022/08/02 05:29:25;0.00;0.00;0.62;0.00;0.00;0.62;3.27;2.30;;;27.10;31.40;;;;;;2224048;62;20382;-66
2022/08/02 05:32:10;0.00;0.00;0.62;0.00;0.00;0.62;3.90;2.60;;;27.00;31.40;;;;;;2226187;62;20362;-66
2022/08/02 05:34:55;0.00;0.00;0.62;0.00;0.00;0.62;6.73;2.87;;;27.00;31.20;;;;;;2226026;62;20446;-66
2022/08/02 05:37:40;0.00;0.00;0.62;0.00;0.00;0.62;5.23;2.57;;;27.00;31.20;;;;;;2226001;62;20362;-63
2022/08/02 05:40:26;0.00;0.00;0.62;0.00;0.00;0.62;5.63;2.33;;;26.90;31.30;;;;;;2225714;62;20386;-66
2022/08/02 05:43:12;0.00;0.00;0.62;0.00;0.00;0.62;6.50;2.30;;;26.90;31.30;;;;;;2225975;62;20382;-65
2022/08/02 05:45:57;0.00;0.00;0.62;0.00;0.00;0.62;2.60;2.20;;;26.80;31.20;;;;;;2226268;62;20354;-65
2022/08/02 05:48:43;0.00;0.00;0.62;0.00;0.00;0.62;5.30;2.10;;;26.80;31.20;;;;;;2225613;62;20362;-66
2022/08/02 05:51:35;0.00;0.00;0.62;0.00;0.00;0.62;5.10;2.30;;;26.70;31.20;;;;;;2225956;62;20589;-66
2022/08/02 05:54:26;0.00;0.00;0.62;0.00;0.00;0.62;4.40;2.57;;;26.70;31.20;;;;;;2226232;62;20395;-66
2022/08/02 05:57:24;0.00;0.00;0.62;0.00;0.00;0.62;6.00;2.77;;;26.60;31.10;;;;;;2225931;62;20579;-65
2022/08/02 06:00:12;0.00;0.00;0.62;0.00;0.00;0.62;4.27;2.27;;;26.60;31.10;;;;;;2226061;62;20451;-65
2022/08/02 06:03:15;0.00;0.00;0.62;0.00;0.00;0.62;5.23;2.30;;;26.60;31.10;;;;;;2225737;62;20630;-65
2022/08/02 06:06:05;0.00;0.00;0.62;0.00;0.00;0.62;3.30;2.47;;;26.50;31.20;;;;;;2225901;62;20392;-66
2022/08/02 06:08:56;0.00;0.00;0.62;0.00;0.00;0.62;5.10;2.57;;;26.50;31.30;;;;;;2226065;62;20719;-64
2022/08/02 06:11:48;0.00;0.00;0.62;0.00;0.00;0.62;3.73;2.40;;;26.50;31.30;;;;;;2225290;62;20394;-65
2022/08/02 06:14:36;0.00;0.00;0.62;0.00;0.00;0.62;6.33;3.10;;;26.50;31.00;;;;;;2226221;62;20803;-65
2022/08/02 06:17:22;0.00;0.00;0.62;0.00;0.00;0.62;3.40;2.30;;;26.50;31.00;;;;;;2225689;62;20390;-65
2022/08/02 06:20:11;0.00;0.00;0.62;0.00;0.00;0.62;4.70;2.93;;;26.40;31.10;;;;;;2225900;62;20596;-66
2022/08/02 06:22:59;0.00;0.00;0.62;0.00;0.00;0.62;4.00;2.60;;;26.40;31.30;;;;;;2226107;62;20731;-66
2022/08/02 06:25:45;0.00;0.00;0.62;0.00;0.00;0.62;4.07;2.20;;;26.30;31.40;;;;;;2225582;62;20413;-65
2022/08/02 06:28:30;0.00;0.00;0.62;0.00;0.00;0.62;3.27;2.20;;;26.30;31.60;;;;;;2225832;62;20430;-66
2022/08/02 06:31:17;0.00;0.00;0.62;0.00;0.00;0.62;2.93;2.27;;;26.30;31.70;;;;;;2226058;62;20726;-65
2022/08/02 06:34:02;0.00;0.00;0.62;0.00;0.00;0.62;3.83;2.27;;;26.30;31.70;;;;;;2226308;62;20627;-66
2022/08/02 06:36:54;0.00;0.00;0.62;0.00;0.00;0.62;3.00;2.20;;;26.30;31.70;;;;;;2226975;62;20362;-66
2022/08/02 06:39:45;0.00;0.00;0.62;0.00;0.00;0.62;4.07;2.37;;;26.30;31.70;;;;;;2226012;62;20390;-65
2022/08/02 06:42:42;0.00;0.00;0.62;0.00;0.00;0.62;4.10;2.03;;;26.30;31.70;;;;;;2226326;62;20721;-64
2022/08/02 06:45:27;0.00;0.00;0.62;0.00;0.00;0.62;3.50;2.43;;;26.30;31.70;;;;;;2226678;62;20595;-69
2022/08/02 06:48:13;0.00;0.00;0.62;0.00;0.00;0.62;6.10;2.43;;;26.20;31.60;;;;;;2225568;62;20615;-67
2022/08/02 06:50:58;0.00;0.00;0.62;0.00;0.00;0.62;4.00;2.60;;;26.20;31.60;;;;;;2226547;62;20635;-64
2022/08/02 06:53:43;0.00;0.00;0.62;0.00;0.00;0.62;4.27;2.50;;;26.20;31.60;;;;;;2226089;62;20417;-65
2022/08/02 06:56:28;0.00;0.00;0.62;0.00;0.00;0.62;7.03;2.70;;;26.20;31.50;;;;;;2225989;62;20595;-64
2022/08/02 06:59:12;0.00;0.00;0.62;0.00;0.00;0.62;3.90;2.27;;;26.20;31.50;;;;;;2226361;62;20596;-65
2022/08/02 07:01:58;0.00;0.00;0.62;0.00;0.00;0.62;5.43;2.20;;;26.10;31.60;;;;;;2225719;62;20365;-66
2022/08/02 07:04:45;0.00;0.00;0.62;0.00;0.00;0.62;6.67;2.80;;;26.00;31.60;;;;;;2226032;62;20358;-66
2022/08/02 07:07:29;0.00;0.00;0.62;0.00;0.00;0.62;3.93;2.40;;;26.00;31.70;;;;;;2226485;62;20373;-65
2022/08/02 07:10:15;0.00;0.00;0.62;0.00;0.00;0.62;4.10;2.20;;;26.00;31.80;;;;;;2224946;62;20394;-66
2022/08/02 07:12:59;0.00;0.00;0.62;0.00;0.00;0.62;4.50;2.70;;;26.00;31.90;;;;;;2224121;62;20421;-64
2022/08/02 07:15:44;0.00;0.00;0.62;0.00;0.00;0.62;4.30;2.60;;;25.90;31.90;;;;;;2221404;62;20455;-65
2022/08/02 07:18:29;0.00;0.00;0.62;0.00;0.00;0.62;5.03;2.77;;;25.90;32.00;;;;;;2219762;62;20451;-65
2022/08/02 07:21:15;0.00;0.00;0.62;0.00;0.00;0.62;4.07;2.10;;;25.90;32.00;;;;;;2220243;62;20390;-64
2022/08/02 07:24:00;0.00;0.00;0.62;0.00;0.00;0.62;5.00;2.70;;;25.90;32.10;;;;;;2219569;62;20613;-66
2022/08/02 07:26:44;0.00;0.00;0.62;0.00;0.00;0.62;4.30;2.70;;;25.90;32.20;;;;;;2219569;62;20384;-63
2022/08/02 07:29:30;0.00;0.00;0.62;0.00;0.00;0.62;3.60;2.23;;;25.90;32.30;;;;;;2219515;62;20446;-63
2022/08/02 07:32:15;0.00;0.00;0.62;0.00;0.00;0.62;4.47;3.27;;;25.90;32.30;;;;;;2218494;62;20363;-63
2022/08/02 07:35:01;0.00;0.00;0.62;0.00;0.00;0.62;4.50;2.60;;;25.90;32.40;;;;;;2219931;62;20686;-64
2022/08/02 07:37:47;0.00;0.00;0.62;0.00;0.00;0.62;6.03;2.87;;;25.80;32.40;;;;;;2220050;62;20768;-62
2022/08/02 07:40:33;0.00;0.00;0.62;0.00;0.00;0.62;5.20;2.70;;;25.90;32.50;;;;;;2219532;62;20427;-62
2022/08/02 07:43:18;0.00;0.00;0.62;0.00;0.00;0.62;6.73;3.00;;;25.80;32.60;;;;;;2220038;62;20398;-62
2022/08/02 07:46:03;0.00;0.00;0.62;0.00;0.00;0.62;4.50;3.30;;;25.80;32.60;;;;;;2219264;62;20442;-65
2022/08/02 07:48:48;0.00;0.00;0.62;0.00;0.00;0.62;4.80;2.67;;;25.80;32.70;;;;;;2219787;62;20784;-65
2022/08/02 07:51:34;0.00;0.00;0.62;0.00;0.00;0.62;8.00;2.97;;;25.90;32.80;;;;;;2220225;62;20580;-67
2022/08/02 07:54:20;0.00;0.00;0.62;0.00;0.00;0.62;4.40;2.30;;;25.80;32.80;;;;;;2219412;62;20413;-64
2022/08/02 07:57:05;0.00;0.00;0.62;0.00;0.00;0.62;5.37;3.10;;;25.90;33.00;;;;;;2219797;62;20383;-64
2022/08/02 07:59:51;0.00;0.00;0.62;0.00;0.00;0.62;3.97;2.63;;;25.90;33.10;;;;;;2222008;62;20422;-64
2022/08/02 08:02:36;0.00;0.00;0.62;0.00;0.00;0.62;5.17;2.10;;;25.90;33.10;;;;;;2221992;62;20785;-66
2022/08/02 08:05:22;0.00;0.00;0.62;0.00;0.00;0.62;6.10;2.40;;;25.90;33.20;;;;;;2222416;62;20382;-65
2022/08/02 08:08:07;0.00;0.00;0.62;0.00;0.00;0.62;4.57;2.87;;;25.90;33.40;;;;;;2221726;62;20481;-64
2022/08/02 08:10:54;0.00;0.00;0.62;0.00;0.00;0.62;4.30;3.00;;;26.00;33.60;;;;;;2222118;62;20391;-63
2022/08/02 08:13:39;0.00;0.00;0.62;0.00;0.00;0.62;6.33;3.97;;;25.90;33.60;;;;;;2221911;62;20608;-63
2022/08/02 08:16:25;0.00;0.00;0.62;0.00;0.00;0.62;6.50;3.37;;;25.90;33.70;;;;;;2221760;62;20637;-65
2022/08/02 08:19:11;0.00;0.00;0.62;0.00;0.00;0.62;3.80;2.90;;;26.00;33.90;;;;;;2222164;62;20383;-64
2022/08/02 08:21:59;0.00;0.00;0.62;0.00;0.00;0.62;6.47;3.07;;;26.00;33.90;;;;;;2221975;62;20363;-63
2022/08/02 08:24:44;0.00;0.00;0.62;0.00;0.00;0.62;3.40;2.63;;;26.00;33.90;;;;;;2221167;62;20771;-67
2022/08/02 08:27:30;0.00;0.00;0.62;0.00;0.00;0.62;4.50;3.10;;;26.00;34.00;;;;;;2223407;62;20383;-63
2022/08/02 08:30:15;0.00;0.00;0.62;0.00;0.00;0.62;4.50;2.80;;;26.10;34.20;;;;;;2695113;46;20394;-62
2022/08/02 08:33:00;0.00;0.00;0.62;0.00;0.00;0.62;4.90;2.73;;;26.10;34.30;;;;;;2225926;62;20442;-65
2022/08/02 08:35:45;0.00;0.00;0.62;0.00;0.00;0.62;4.60;2.90;;;26.10;34.20;;;;;;2226469;62;20570;-66
2022/08/02 08:38:30;0.00;0.00;0.62;0.00;0.00;0.62;6.97;2.40;;;26.20;34.30;;;;;;2225235;62;20370;-66
2022/08/02 08:41:16;0.00;0.00;0.62;0.00;0.00;0.62;5.60;2.57;;;26.20;34.30;;;;;;2226000;62;20539;-63
2022/08/02 08:44:03;0.00;0.00;0.62;0.00;0.00;0.62;2.93;2.63;;;26.20;34.20;;;;;;2226352;62;20358;-62
2022/08/02 08:46:49;0.00;0.00;0.62;0.00;0.00;0.62;6.83;3.17;;;26.20;34.10;;;;;;2225304;62;20366;-67
2022/08/02 08:49:40;0.00;0.00;0.62;0.00;0.00;0.62;2.80;2.33;;;26.30;34.20;;;;;;2225909;62;20394;-62
2022/08/02 08:52:26;0.00;0.00;0.62;0.00;0.00;0.62;4.00;2.90;;;26.30;34.20;;;;;;2225472;62;20407;-62
2022/08/02 08:55:12;0.00;0.00;0.62;0.00;0.00;0.62;4.50;2.80;;;26.30;34.20;;;;;;2225639;62;20771;-61
2022/08/02 08:57:59;0.00;0.00;0.62;0.00;0.00;0.62;3.67;2.03;;;26.30;34.10;;;;;;2225419;62;20759;-61
2022/08/02 09:00:46;0.00;0.00;0.62;0.00;0.00;0.62;3.33;2.80;;;26.40;34.10;;;;;;2221698;62;20443;-61
2022/08/02 09:03:31;0.00;0.00;0.62;0.00;0.00;0.62;5.47;2.73;;;26.40;33.90;;;;;;2221424;62;20588;-61
2022/08/02 09:06:16;0.00;0.00;0.62;0.00;0.00;0.62;5.60;3.27;;;26.40;33.60;;;;;;2222303;62;20367;-61
2022/08/02 09:09:00;0.00;0.00;0.62;0.00;0.00;0.62;5.07;3.27;;;26.40;33.50;;;;;;2221136;62;20406;-63
2022/08/02 09:11:45;0.00;0.00;0.62;0.00;0.00;0.62;3.97;3.00;;;26.50;33.40;;;;;;2222084;62;20574;-62
2022/08/02 09:14:31;0.00;0.00;0.62;0.00;0.00;0.62;5.90;3.07;;;26.50;33.40;;;;;;2221616;62;20405;-63
2022/08/02 09:17:18;0.00;0.00;0.62;0.00;0.00;0.62;7.47;3.00;;;26.50;33.20;;;;;;2222052;62;20624;-63
2022/08/02 09:20:08;0.00;0.00;0.62;0.00;0.00;0.62;3.07;2.33;;;26.50;33.00;;;;;;2409172;54;20413;-62
2022/08/02 09:23:05;0.00;0.00;0.62;0.00;0.00;0.62;2.67;2.40;;;26.60;33.00;;;;;;2225467;62;20362;-63
2022/08/02 09:26:02;0.00;0.00;0.62;0.00;0.00;0.62;2.83;2.33;;;26.50;32.70;;;;;;2225958;62;20370;-62
2022/08/02 09:28:50;0.00;0.00;0.62;0.00;0.00;0.62;4.30;2.80;;;26.60;32.60;;;;;;2225983;62;20374;-63
2022/08/02 09:31:35;0.00;0.00;0.62;0.00;0.00;0.62;2.57;2.30;;;26.60;32.50;;;;;;2225577;62;20365;-62
2022/08/02 09:34:21;0.00;0.00;0.62;0.00;0.00;0.62;4.60;2.80;;;26.60;33.20;;;;;;2226130;62;20608;-62
2022/08/02 09:37:20;0.00;0.00;0.62;0.00;0.00;0.62;2.70;2.30;;;26.60;32.50;;;;;;2225521;62;20417;-62
2022/08/02 09:40:09;0.00;0.00;0.62;0.00;0.00;0.62;2.80;2.43;;;26.60;32.60;;;;;;2453902;54;20378;-62
2022/08/02 09:42:58;0.00;0.00;0.62;0.00;0.00;0.62;6.07;3.00;;;26.60;32.70;;;;;;2226143;62;20374;-62
2022/08/02 09:45:42;0.00;0.00;0.62;0.00;0.00;0.62;2.97;2.53;;;26.60;32.80;;;;;;2225389;62;20727;-62
2022/08/02 09:48:27;0.00;0.00;0.62;0.00;0.00;0.62;3.30;2.83;;;26.60;32.80;;;;;;2225851;62;20378;-62
2022/08/02 09:51:16;0.00;0.00;0.62;0.00;0.00;0.62;5.97;2.80;;;26.70;33.40;;;;;;2225869;62;20362;-62
2022/08/02 09:54:05;0.00;0.00;0.62;0.00;0.00;0.62;3.90;2.60;;;26.70;32.50;;;;;;2225672;62;20390;-62
2022/08/02 09:56:53;0.00;0.00;0.62;0.00;0.00;0.62;3.40;2.07;;;26.70;32.30;;;;;;2226175;62;20369;-61
2022/08/02 09:59:52;0.00;0.00;0.62;0.00;0.00;0.62;4.53;2.67;;;26.80;32.50;;;;;;2224927;62;20443;-62
2022/08/02 10:02:37;0.00;0.00;0.62;0.00;0.00;0.62;2.70;2.17;;;26.80;32.50;;;;;;2225744;62;20431;-62
2022/08/02 10:05:28;0.00;0.00;0.62;0.00;0.00;0.62;3.53;2.60;;;26.80;32.50;;;;;;2226132;62;20419;-62
2022/08/02 10:08:14;0.00;0.00;0.62;0.00;0.00;0.62;3.00;2.70;;;26.80;32.50;;;;;;2225390;62;20377;-62
2022/08/02 10:11:00;0.00;0.00;0.62;0.00;0.00;0.62;2.50;2.27;;;26.80;32.50;;;;;;2226773;62;20381;-62
2022/08/02 10:13:45;0.00;0.00;0.62;0.00;0.00;0.62;3.33;2.60;;;26.90;32.60;;;;;;2225912;62;20432;-62
2022/08/02 10:16:33;0.00;0.00;0.62;0.00;0.00;0.62;3.23;2.13;;;26.90;32.60;;;;;;2226218;62;20370;-62
2022/08/02 10:19:17;0.00;0.00;0.62;0.00;0.00;0.62;3.40;2.73;;;26.90;32.60;;;;;;2226463;62;20435;-61
2022/08/02 10:22:05;0.00;0.00;0.62;0.00;0.00;0.62;3.30;2.27;;;27.00;32.60;;;;;;2225917;62;20558;-62
2022/08/02 10:24:52;0.00;0.00;0.62;0.00;0.00;0.62;3.97;2.50;;;27.00;32.40;;;;;;2226560;62;20734;-62
2022/08/02 10:27:38;0.00;0.00;0.62;0.00;0.00;0.62;3.30;2.90;;;27.00;32.40;;;;;;2226621;62;20374;-62
2022/08/02 10:30:24;0.00;0.00;0.62;0.00;0.00;0.62;4.20;2.47;;;27.00;32.10;;;;;;2225577;62;20422;-62
2022/08/02 10:33:10;0.00;0.00;0.62;0.00;0.00;0.62;2.90;2.60;;;27.00;31.50;;;;;;2226669;62;20433;-62
2022/08/02 10:35:57;0.00;0.00;0.62;0.00;0.00;0.62;6.83;2.37;;;27.10;31.50;;;;;;2226098;62;20850;-62
2022/08/02 10:38:44;0.00;0.00;0.62;0.00;0.00;0.62;4.03;2.30;;;27.10;31.40;;;;;;2226152;62;20377;-62
2022/08/02 10:41:48;0.00;0.00;0.62;0.00;0.00;0.62;2.83;1.97;;;27.10;31.60;;;;;;2226817;62;20361;-61
2022/08/02 10:44:35;0.00;0.00;0.62;0.00;0.00;0.62;5.40;2.73;;;27.20;31.70;;;;;;2225881;62;20383;-63
2022/08/02 10:47:24;0.00;0.00;0.62;0.00;0.00;0.62;2.90;2.20;;;27.20;31.70;;;;;;2226389;62;20375;-62
2022/08/02 10:50:10;0.00;0.00;0.62;0.00;0.00;0.62;2.93;2.70;;;27.20;31.60;;;;;;2454847;54;20394;-62
2022/08/02 10:53:19;0.00;0.00;0.62;0.00;0.00;0.62;3.40;3.10;;;27.20;31.50;;;;;;2225948;62;20438;-62
2022/08/02 10:56:05;0.00;0.00;0.62;0.00;0.00;0.62;3.03;2.60;;;27.30;31.60;;;;;;2226481;62;20702;-62
2022/08/02 10:59:25;0.00;0.00;0.62;0.00;0.00;0.62;4.40;2.70;;;27.30;32.30;;;;;;2225563;62;20683;-62
2022/08/02 11:02:11;0.00;0.00;0.62;0.00;0.00;0.62;3.60;2.57;;;27.30;31.60;;;;;;2226263;62;20378;-62